createdAt,value
2022-09-12T00:01:43.957Z,100232.39
2022-09-12T00:04:12.491Z,100232.02
2022-09-12T00:06:40.785Z,100234.59
2022-09-12T00:09:12.412Z,100232.66
2022-09-12T00:11:44.049Z,100231.28
2022-09-12T00:14:16.403Z,100233.38
2022-09-12T00:16:44.853Z,100230.06
2022-09-12T00:19:13.226Z,100231.77
2022-09-12T00:21:42.113Z,100231.23
2022-09-12T00:24:11.721Z,100230.69
2022-09-12T00:26:40.653Z,100230.71
2022-09-12T00:29:21.400Z,100230.86
2022-09-12T00:31:49.871Z,100229.84
2022-09-12T00:34:18.238Z,100229.30
2022-09-12T00:36:46.723Z,100232.55
2022-09-12T00:39:17.105Z,100229.04
2022-09-12T00:41:46.286Z,100228.16
2022-09-12T00:44:23.653Z,100227.82
2022-09-12T00:46:59.835Z,100228.53
2022-09-12T00:49:46.191Z,100232.70
2022-09-12T00:52:23.891Z,100231.31
2022-09-12T00:55:21.246Z,100229.77
2022-09-12T00:58:00.327Z,100228.41
2022-09-12T01:00:30.603Z,100226.20
2022-09-12T01:03:04.098Z,100225.55
2022-09-12T01:05:36.164Z,100226.48
2022-09-12T01:08:05.365Z,100225.89
2022-09-12T01:10:37.800Z,100230.27
2022-09-12T01:13:09.250Z,100232.42
2022-09-12T01:15:39.667Z,100229.33
2022-09-12T01:18:11.267Z,100231.46
2022-09-12T01:20:52.445Z,100230.10
2022-09-12T01:23:48.575Z,100229.09
2022-09-12T01:26:48.841Z,100226.18
2022-09-12T01:29:39.096Z,100223.92
2022-09-12T01:32:39.113Z,100221.16
2022-09-12T01:35:16.915Z,100222.48
2022-09-12T01:38:13.758Z,100222.18
2022-09-12T01:41:02.515Z,100223.65
2022-09-12T01:43:32.138Z,100225.76
2022-09-12T01:46:17.847Z,100231.37
2022-09-12T01:48:56.135Z,100230.91
2022-09-12T01:51:42.610Z,100238.44
2022-09-12T01:54:21.053Z,100236.72
2022-09-12T01:56:52.469Z,100238.00
2022-09-12T01:59:30.221Z,100241.73
2022-09-12T02:02:01.560Z,100238.88
2022-09-12T02:04:45.264Z,100236.19
2022-09-12T02:07:19.995Z,100238.87
2022-09-12T02:09:57.432Z,100235.83
2022-09-12T02:12:31.731Z,100235.91
2022-09-12T02:15:05.404Z,100236.54
2022-09-12T02:17:39.420Z,100235.38
2022-09-12T02:20:37.455Z,100233.19
2022-09-12T02:23:12.362Z,100231.03
2022-09-12T02:25:45.821Z,100235.33
2022-09-12T02:28:18.802Z,100234.91
2022-09-12T02:31:13.097Z,100231.90
2022-09-12T02:33:56.826Z,100236.67
2022-09-12T02:36:38.004Z,100238.83
2022-09-12T02:39:06.643Z,100239.76
2022-09-12T02:41:35.551Z,100242.45
2022-09-12T02:44:05.210Z,100245.79
2022-09-12T02:46:39.343Z,100245.70
2022-09-12T02:49:09.487Z,100244.56
2022-09-12T02:51:38.585Z,100244.22
2022-09-12T02:54:07.715Z,100237.98
2022-09-12T02:56:36.637Z,100242.31
2022-09-12T02:59:08.310Z,100241.59
2022-09-12T03:02:08.119Z,100238.06
2022-09-12T03:04:55.504Z,100241.00
2022-09-12T03:07:43.044Z,100238.52
2022-09-12T03:10:33.221Z,100239.54
2022-09-12T03:13:32.623Z,100238.02
2022-09-12T03:16:15.927Z,100243.00
2022-09-12T03:19:03.480Z,100242.95
2022-09-12T03:21:45.696Z,100243.25
2022-09-12T03:24:24.634Z,100244.27
2022-09-12T03:26:59.514Z,100242.89
2022-09-12T03:29:29.719Z,100245.29
2022-09-12T03:31:59.415Z,100249.63
2022-09-12T03:34:28.164Z,100253.11
2022-09-12T03:36:57.058Z,100257.14
2022-09-12T03:39:27.031Z,100261.32
2022-09-12T03:41:56.066Z,100262.90
2022-09-12T03:44:25.356Z,100269.00
2022-09-12T03:46:54.246Z,100266.36
2022-09-12T03:49:22.453Z,100268.85
2022-09-12T03:51:51.010Z,100272.08
2022-09-12T03:54:19.287Z,100272.52
2022-09-12T03:56:47.477Z,100272.46
2022-09-12T03:59:15.858Z,100269.94
2022-09-12T04:01:44.311Z,100272.20
2022-09-12T04:04:12.514Z,100270.21
2022-09-12T04:06:41.748Z,100268.44
2022-09-12T04:09:10.284Z,100272.58
2022-09-12T04:11:38.492Z,100272.33
2022-09-12T04:14:07.135Z,100273.66
2022-09-12T04:16:35.690Z,100273.96
2022-09-12T04:19:04.087Z,100278.24
2022-09-12T04:21:32.699Z,100273.05
2022-09-12T04:24:01.152Z,100275.03
2022-09-12T04:26:30.035Z,100278.40
2022-09-12T04:28:58.672Z,100276.68
2022-09-12T04:31:27.390Z,100277.27
2022-09-12T04:34:01.327Z,100280.95
2022-09-12T04:36:29.993Z,100283.39
2022-09-12T04:38:58.902Z,100285.66
2022-09-12T04:41:33.600Z,100285.00
2022-09-12T04:44:05.499Z,100285.52
2022-09-12T04:46:37.046Z,100289.35
2022-09-12T04:49:05.791Z,100291.27
2022-09-12T04:51:36.709Z,100290.71
2022-09-12T04:54:13.022Z,100291.39
2022-09-12T04:56:44.111Z,100288.92
2022-09-12T04:59:15.866Z,100290.26
2022-09-12T05:01:44.410Z,100285.27
2022-09-12T05:04:14.176Z,100285.23
2022-09-12T05:06:43.628Z,100286.70
2022-09-12T05:09:14.249Z,100288.38
2022-09-12T05:12:04.166Z,100291.08
2022-09-12T05:14:34.394Z,100292.45
2022-09-12T05:17:04.941Z,100291.95
2022-09-12T05:19:33.683Z,100291.08
2022-09-12T05:22:02.669Z,100292.63
2022-09-12T05:24:30.910Z,100295.69
2022-09-12T05:26:59.425Z,100298.56
2022-09-12T05:29:27.803Z,100296.39
2022-09-12T05:31:55.995Z,100294.54
2022-09-12T05:34:24.870Z,100301.67
2022-09-12T05:36:53.649Z,100300.46
2022-09-12T05:39:22.650Z,100296.49
2022-09-12T05:41:51.026Z,100296.39
2022-09-12T05:44:20.183Z,100301.71
2022-09-12T05:46:51.476Z,100299.27
2022-09-12T05:49:21.591Z,100301.61
2022-09-12T05:51:50.990Z,100300.95
2022-09-12T05:54:20.796Z,100301.15
2022-09-12T05:56:49.490Z,100304.27
2022-09-12T05:59:20.373Z,100303.20
2022-09-12T06:01:49.326Z,100307.52
2022-09-12T06:04:19.026Z,100306.96
2022-09-12T06:06:48.925Z,100312.80
2022-09-12T06:09:18.101Z,100313.26
2022-09-12T06:11:46.715Z,100311.30
2022-09-12T06:14:17.900Z,100313.35
2022-09-12T06:16:47.854Z,100314.86
2022-09-12T06:19:19.216Z,100315.66
2022-09-12T06:21:49.956Z,100314.16
2022-09-12T06:24:19.368Z,100312.79
2022-09-12T06:26:48.975Z,100315.95
2022-09-12T06:29:17.557Z,100323.20
2022-09-12T06:31:46.143Z,100322.89
2022-09-12T06:34:15.825Z,100325.39
2022-09-12T06:36:47.206Z,100326.69
2022-09-12T06:39:26.022Z,100325.45
2022-09-12T06:41:54.800Z,100324.13
2022-09-12T06:44:35.075Z,100324.05
2022-09-12T06:47:03.546Z,100324.45
2022-09-12T06:49:31.822Z,100329.82
2022-09-12T06:52:03.181Z,100331.00
2022-09-12T06:54:48.022Z,100333.14
2022-09-12T06:57:19.957Z,100329.45
2022-09-12T06:59:48.278Z,100332.96
2022-09-12T07:02:16.882Z,100334.14
2022-09-12T07:04:46.614Z,100336.20
2022-09-12T07:07:26.703Z,100336.78
2022-09-12T07:10:22.449Z,100329.88
2022-09-12T07:13:01.066Z,100337.19
2022-09-12T07:15:38.949Z,100337.73
2022-09-12T07:18:11.018Z,100335.55
2022-09-12T07:20:46.455Z,100336.04
2022-09-12T07:23:26.322Z,100341.46
2022-09-12T07:26:01.295Z,100347.73
2022-09-12T07:28:32.029Z,100351.17
2022-09-12T07:31:08.926Z,100353.89
2022-09-12T07:33:38.558Z,100352.67
2022-09-12T07:36:12.338Z,100359.98
2022-09-12T07:38:41.688Z,100363.08
2022-09-12T07:41:14.739Z,100368.27
2022-09-12T07:43:43.960Z,100365.96
2022-09-12T07:46:12.474Z,100367.44
2022-09-12T07:48:41.233Z,100362.34
2022-09-12T07:51:11.248Z,100363.69
2022-09-12T07:53:41.777Z,100367.00
2022-09-12T07:56:11.495Z,100367.55
2022-09-12T07:58:41.930Z,100369.84
2022-09-12T08:01:13.113Z,100371.45
2022-09-12T08:03:43.149Z,100372.89
2022-09-12T08:06:14.645Z,100372.45
2022-09-12T08:08:43.788Z,100378.10
2022-09-12T08:11:14.712Z,100375.91
2022-09-12T08:13:44.329Z,100377.02
2022-09-12T08:16:14.655Z,100372.31
2022-09-12T08:18:42.867Z,100377.58
2022-09-12T08:21:15.756Z,100380.02
2022-09-12T08:23:45.429Z,100386.14
2022-09-12T08:26:14.146Z,100383.77
2022-09-12T08:28:45.809Z,100384.39
2022-09-12T08:31:17.278Z,100385.09
2022-09-12T08:33:46.038Z,100385.44
2022-09-12T08:36:28.314Z,100384.60
2022-09-12T08:39:05.176Z,100387.66
2022-09-12T08:41:39.911Z,100390.23
2022-09-12T08:44:09.525Z,100390.70
2022-09-12T08:47:00.714Z,100387.02
2022-09-12T08:49:48.897Z,100383.80
2022-09-12T08:52:35.727Z,100383.71
2022-09-12T08:55:07.156Z,100382.13
2022-09-12T08:57:35.431Z,100381.77
2022-09-12T09:00:07.106Z,100383.20
